createdAt,value
2022-11-22T00:00:43.401Z,98919.50
2022-11-22T00:03:35.640Z,98921.16
2022-11-22T00:06:16.202Z,98921.06
2022-11-22T00:09:00.788Z,98925.38
2022-11-22T00:11:55.131Z,98922.50
2022-11-22T00:14:48.995Z,98921.44
2022-11-22T00:17:31.026Z,98925.81
2022-11-22T00:20:19.105Z,98929.75
2022-11-22T00:23:09.774Z,98925.81
2022-11-22T00:25:51.914Z,98934.06
2022-11-22T00:28:36.558Z,98926.84
2022-11-22T00:31:25.436Z,98932.44
2022-11-22T00:34:15.393Z,98925.06
2022-11-22T00:37:09.967Z,98917.22
2022-11-22T00:39:53.882Z,98919.22
2022-11-22T00:42:39.295Z,98908.56
2022-11-22T00:45:20.512Z,98913.34
2022-11-22T00:48:09.504Z,98912.22
2022-11-22T00:50:59.741Z,98918.06
2022-11-22T00:53:43.660Z,98913.00
2022-11-22T00:56:32.930Z,98913.59
2022-11-22T00:59:09.091Z,98914.47
2022-11-22T01:01:56.655Z,98913.88
2022-11-22T01:04:47.275Z,98912.44
2022-11-22T01:07:29.732Z,98917.56
2022-11-22T01:10:12.916Z,98910.59
2022-11-22T01:12:53.760Z,98909.31
2022-11-22T01:15:42.728Z,98902.22
2022-11-22T01:18:27.923Z,98905.16
2022-11-22T01:21:11.212Z,98892.16
2022-11-22T01:23:53.902Z,98892.41
2022-11-22T01:26:35.868Z,98895.28
2022-11-22T01:29:24.886Z,98895.72
2022-11-22T01:32:10.940Z,98897.31
2022-11-22T01:34:57.152Z,98896.25
2022-11-22T01:37:46.078Z,98894.97
2022-11-22T01:40:40.658Z,98897.88
2022-11-22T01:43:36.046Z,98898.69
2022-11-22T01:46:37.025Z,98894.94
2022-11-22T01:49:30.196Z,98900.06
2022-11-22T01:52:12.063Z,98900.97
2022-11-22T01:55:01.802Z,98891.13
2022-11-22T01:57:47.221Z,98899.06
2022-11-22T02:00:25.324Z,98900.53
2022-11-22T02:03:13.625Z,98901.22
2022-11-22T02:06:01.097Z,98904.25
2022-11-22T02:08:52.846Z,98912.22
2022-11-22T02:11:35.850Z,98900.72
2022-11-22T02:14:24.149Z,98907.31
2022-11-22T02:17:18.000Z,98891.69
2022-11-22T02:20:01.728Z,98892.91
2022-11-22T02:23:30.554Z,98898.31
2022-11-22T02:26:13.934Z,98895.75
2022-11-22T02:29:05.849Z,98890.09
2022-11-22T02:31:48.198Z,98889.66
2022-11-22T02:34:32.551Z,98885.34
2022-11-22T02:37:11.996Z,98881.41
2022-11-22T02:39:51.932Z,98883.06
2022-11-22T02:42:37.618Z,98875.13
2022-11-22T02:45:21.454Z,98872.00
2022-11-22T02:48:19.961Z,98871.66
2022-11-22T02:51:05.996Z,98862.78
2022-11-22T02:53:47.089Z,98871.63
2022-11-22T02:56:30.844Z,98874.28
2022-11-22T02:59:14.252Z,98874.78
2022-11-22T03:01:54.865Z,98875.94
2022-11-22T03:04:38.975Z,98872.00
2022-11-22T03:07:36.389Z,98870.09
2022-11-22T03:10:14.438Z,98859.25
2022-11-22T03:13:00.030Z,98863.56
2022-11-22T03:15:45.681Z,98862.53
2022-11-22T03:18:29.447Z,98870.34
2022-11-22T03:21:18.723Z,98864.19
2022-11-22T03:24:00.054Z,98880.59
2022-11-22T03:26:41.912Z,98881.44
2022-11-22T03:29:22.907Z,98882.56
2022-11-22T03:32:10.106Z,98874.66
2022-11-22T03:34:48.956Z,98871.81
2022-11-22T03:37:36.065Z,98880.81
2022-11-22T03:40:14.896Z,98874.09
2022-11-22T03:42:53.521Z,98864.63
2022-11-22T03:45:44.084Z,98857.66
2022-11-22T03:48:31.886Z,98855.63
2022-11-22T03:51:13.904Z,98849.16
2022-11-22T03:53:56.636Z,98857.84
2022-11-22T03:56:44.684Z,98858.13
2022-11-22T03:59:37.084Z,98860.75
2022-11-22T04:02:24.339Z,98849.09
2022-11-22T04:05:12.497Z,98864.22
2022-11-22T04:07:52.149Z,98860.97
2022-11-22T04:10:38.992Z,98872.19
2022-11-22T04:13:51.551Z,98872.47
2022-11-22T04:16:40.681Z,98870.78
2022-11-22T04:19:28.300Z,98867.34
2022-11-22T04:22:17.177Z,98866.91
2022-11-22T04:25:14.069Z,98856.38
2022-11-22T04:28:06.851Z,98866.66
2022-11-22T04:31:07.234Z,98868.63
2022-11-22T04:33:54.155Z,98861.34
2022-11-22T04:36:40.190Z,98867.31
2022-11-22T04:39:27.424Z,98867.31
2022-11-22T04:42:25.316Z,98862.97
2022-11-22T04:45:14.034Z,98863.69
2022-11-22T04:48:04.781Z,98854.53
2022-11-22T04:50:59.741Z,98858.16
2022-11-22T04:53:55.203Z,98859.13
2022-11-22T04:56:51.181Z,98861.78
2022-11-22T04:59:32.345Z,98873.78
2022-11-22T05:02:13.882Z,98861.09
2022-11-22T05:04:59.872Z,98863.41
2022-11-22T05:07:54.627Z,98861.19
2022-11-22T05:10:50.324Z,98858.00
2022-11-22T05:13:28.525Z,98861.84
2022-11-22T05:16:13.801Z,98862.41
2022-11-22T05:19:11.794Z,98864.53
2022-11-22T05:21:50.322Z,98868.69
2022-11-22T05:24:26.029Z,98873.31
2022-11-22T05:27:04.730Z,98875.44
2022-11-22T05:29:45.897Z,98881.84
2022-11-22T05:32:27.948Z,98887.00
2022-11-22T05:35:08.151Z,98896.63
2022-11-22T05:37:46.715Z,98899.84
2022-11-22T05:40:32.562Z,98893.78
2022-11-22T05:43:17.682Z,98901.69
2022-11-22T05:46:04.469Z,98896.75
2022-11-22T05:48:53.106Z,98901.53
2022-11-22T05:51:35.001Z,98919.16
2022-11-22T05:54:18.818Z,98912.34
2022-11-22T05:56:55.906Z,98904.19
2022-11-22T05:59:31.316Z,98891.94
2022-11-22T06:02:09.970Z,98904.25
2022-11-22T06:05:01.665Z,98891.38
2022-11-22T06:07:51.921Z,98885.78
2022-11-22T06:10:45.196Z,98889.56
2022-11-22T06:14:01.506Z,98893.78
2022-11-22T06:16:52.010Z,98888.44
2022-11-22T06:19:27.142Z,98887.59
2022-11-22T06:22:08.924Z,98892.66
2022-11-22T06:24:57.424Z,98895.03
2022-11-22T06:27:41.247Z,98902.56
2022-11-22T06:30:19.570Z,98911.00
2022-11-22T06:33:09.002Z,98903.19
2022-11-22T06:35:54.493Z,98898.38
2022-11-22T06:38:35.629Z,98908.34
2022-11-22T06:41:16.971Z,98914.13
2022-11-22T06:44:04.398Z,98911.97
2022-11-22T06:46:56.917Z,98930.06
2022-11-22T06:49:38.456Z,98923.69
2022-11-22T06:52:22.940Z,98915.38
2022-11-22T06:55:07.984Z,98916.03
2022-11-22T06:57:46.870Z,98896.41
2022-11-22T07:00:35.440Z,98899.03
2022-11-22T07:03:17.027Z,98885.34
2022-11-22T07:06:01.713Z,98885.34
2022-11-22T07:08:43.440Z,98895.25
2022-11-22T07:11:27.003Z,98892.47
2022-11-22T07:14:08.316Z,98900.06
2022-11-22T07:16:48.907Z,98914.03
2022-11-22T07:19:34.745Z,98908.66
2022-11-22T07:22:09.374Z,98908.84
2022-11-22T07:24:53.205Z,98912.88
2022-11-22T07:27:34.863Z,98914.88
2022-11-22T07:30:20.827Z,98912.00
2022-11-22T07:32:52.890Z,98917.88
2022-11-22T07:35:39.678Z,98921.72
2022-11-22T07:38:29.200Z,98916.31
2022-11-22T07:41:18.152Z,98905.75
2022-11-22T07:44:08.884Z,98909.47
2022-11-22T07:46:50.897Z,98912.72
2022-11-22T07:49:39.889Z,98906.94
2022-11-22T07:52:19.820Z,98913.53
2022-11-22T07:54:53.910Z,98908.13
2022-11-22T07:57:34.933Z,98908.22
2022-11-22T08:00:18.394Z,98914.75
2022-11-22T08:03:03.947Z,98913.28
2022-11-22T08:05:44.708Z,98908.28
2022-11-22T08:08:31.074Z,98901.09
2022-11-22T08:11:14.252Z,98900.94
2022-11-22T08:14:00.880Z,98908.19
2022-11-22T08:16:36.056Z,98900.03
2022-11-22T08:19:18.124Z,98916.53
2022-11-22T08:22:02.021Z,98910.25
2022-11-22T08:24:53.870Z,98910.50
2022-11-22T08:27:38.072Z,98915.44
2022-11-22T08:30:21.835Z,98907.94
2022-11-22T08:32:59.892Z,98909.91
2022-11-22T08:35:46.894Z,98901.63
2022-11-22T08:38:36.272Z,98902.56
2022-11-22T08:41:16.933Z,98905.75
2022-11-22T08:43:56.674Z,98909.63
2022-11-22T08:46:43.856Z,98912.72
2022-11-22T08:49:28.316Z,98914.94
2022-11-22T08:52:18.277Z,98920.22
2022-11-22T08:55:04.182Z,98922.63
2022-11-22T08:57:44.176Z,98924.66
2022-11-22T09:00:33.225Z,98919.72
2022-11-22T09:03:17.020Z,98912.47
2022-11-22T09:09:39.990Z,98911.31
2022-11-22T09:12:30.865Z,98908.56
2022-11-22T09:15:18.870Z,98899.72
2022-11-22T09:18:04.127Z,98898.75
2022-11-22T09:20:41.916Z,98902.88
2022-11-22T09:23:22.129Z,98902.28
2022-11-22T09:26:22.480Z,98901.41
2022-11-22T09:29:25.276Z,98899.19
2022-11-22T09:32:29.347Z,98885.41
2022-11-22T09:35:20.840Z,98885.13
2022-11-22T09:38:11.252Z,98893.00
2022-11-22T09:41:02.423Z,98880.50
2022-11-22T09:44:10.575Z,98876.19
2022-11-22T09:47:01.716Z,98873.28
2022-11-22T09:50:16.679Z,98875.50
2022-11-22T09:53:05.968Z,98872.47
2022-11-22T09:55:59.694Z,98866.28
2022-11-22T09:58:39.875Z,98855.19
2022-11-22T10:01:39.405Z,98854.41
2022-11-22T10:04:19.693Z,98844.50
2022-11-22T10:07:29.643Z,98853.00
2022-11-22T10:10:19.027Z,98851.72
2022-11-22T10:13:46.260Z,98837.56
2022-11-22T10:16:34.020Z,98829.53
2022-11-22T10:19:23.810Z,98828.66
2022-11-22T10:22:05.175Z,98816.69
2022-11-22T10:25:04.848Z,98821.22
2022-11-22T10:27:47.893Z,98813.63
2022-11-22T10:30:30.791Z,98810.78
2022-11-22T10:33:46.530Z,98802.78
2022-11-22T10:36:40.592Z,98802.97
2022-11-22T10:39:34.716Z,98806.69
2022-11-22T10:42:42.819Z,98802.94
2022-11-22T10:45:36.355Z,98795.94
2022-11-22T10:48:23.998Z,98791.44
2022-11-22T10:51:08.192Z,98786.44
2022-11-22T10:54:03.695Z,98796.97
2022-11-22T10:57:41.042Z,98794.50
2022-11-22T11:00:30.909Z,98794.47
2022-11-22T11:03:30.869Z,98789.94
2022-11-22T11:06:57.085Z,98787.69
2022-11-22T11:13:05.768Z,98774.22
2022-11-22T11:16:02.730Z,98775.69
2022-11-22T11:18:57.613Z,98760.28
2022-11-22T11:21:43.969Z,98765.56
2022-11-22T11:24:45.443Z,98769.44
2022-11-22T11:27:28.447Z,98759.09
2022-11-22T11:30:14.002Z,98761.47
2022-11-22T11:33:23.861Z,98749.75
2022-11-22T11:36:18.879Z,98750.81
2022-11-22T11:39:11.183Z,98742.13
2022-11-22T11:42:04.649Z,98732.00
2022-11-22T11:44:49.246Z,98727.50
2022-11-22T11:47:50.631Z,98731.13
2022-11-22T11:50:40.204Z,98721.22
2022-11-22T11:53:35.934Z,98715.84
2022-11-22T11:57:03.760Z,98708.50
2022-11-22T11:59:53.187Z,98683.81
2022-11-22T12:02:34.095Z,98682.94
2022-11-22T12:05:24.389Z,98666.97
2022-11-22T12:08:44.644Z,98676.00
2022-11-22T12:12:03.574Z,98676.28
2022-11-22T12:15:10.808Z,98667.50
2022-11-22T12:18:11.661Z,98673.50
2022-11-22T12:21:09.692Z,98677.84
2022-11-22T12:27:37.037Z,98666.25
2022-11-22T12:30:23.931Z,98648.13
2022-11-22T12:33:13.573Z,98651.63
2022-11-22T12:35:59.265Z,98636.88
2022-11-22T12:38:43.762Z,98640.16
2022-11-22T12:41:34.507Z,98641.59
2022-11-22T12:44:25.843Z,98633.13
2022-11-22T12:47:13.319Z,98625.72
2022-11-22T12:48:32.658Z,98663.75
2022-11-22T12:50:03.419Z,98634.63
2022-11-22T12:52:50.334Z,98626.47
2022-11-22T12:55:45.853Z,98643.72
2022-11-22T12:58:41.486Z,98643.34
2022-11-22T13:01:57.031Z,98641.28
2022-11-22T13:04:55.017Z,98638.59
2022-11-22T13:07:45.947Z,98635.50
2022-11-22T13:11:01.759Z,98634.03
2022-11-22T13:13:47.070Z,98637.38
2022-11-22T13:16:27.755Z,98632.78
2022-11-22T13:19:18.900Z,98625.28
2022-11-22T13:22:35.569Z,98629.47
2022-11-22T13:25:44.811Z,98620.63
2022-11-22T13:28:32.954Z,98614.25
2022-11-22T13:31:21.625Z,98613.50
2022-11-22T13:34:24.556Z,98620.50
2022-11-22T13:37:18.043Z,98617.22
2022-11-22T13:40:20.434Z,98622.41
2022-11-22T13:43:36.447Z,98614.97
2022-11-22T13:46:47.858Z,98610.28
2022-11-22T13:49:49.392Z,98590.28
2022-11-22T13:52:58.866Z,98583.94
2022-11-22T13:55:42.272Z,98590.16
2022-11-22T13:58:59.292Z,98596.94
2022-11-22T14:02:02.917Z,98590.16
2022-11-22T14:04:51.738Z,98587.72
2022-11-22T14:08:03.298Z,98595.03
2022-11-22T14:11:12.682Z,98588.47
2022-11-22T14:14:00.748Z,98595.50
2022-11-22T14:17:06.390Z,98594.88
2022-11-22T14:20:09.281Z,98601.44
2022-11-22T14:23:00.789Z,98604.16
2022-11-22T14:26:04.365Z,98600.84
2022-11-22T14:29:00.308Z,98602.31
2022-11-22T14:31:42.236Z,98606.81
2022-11-22T14:34:58.770Z,98610.75
2022-11-22T14:38:02.649Z,98607.81
2022-11-22T14:40:44.282Z,98607.41
2022-11-22T14:43:37.416Z,98611.56
2022-11-22T14:46:52.400Z,98612.13
2022-11-22T14:49:47.874Z,98615.84
2022-11-22T14:52:36.857Z,98608.22
2022-11-22T14:55:26.861Z,98605.16
2022-11-22T14:58:09.016Z,98608.72
2022-11-22T15:01:22.905Z,98599.00
2022-11-22T15:09:13.964Z,98601.91
2022-11-22T15:09:15.084Z,98602.94
2022-11-22T15:11:41.840Z,98602.09
2022-11-22T15:14:54.131Z,98610.94
2022-11-22T15:57:32.055Z,98595.16
2022-11-22T16:00:35.201Z,98598.03
2022-11-22T16:03:44.308Z,98590.19
2022-11-22T16:06:37.723Z,98585.88
2022-11-22T16:09:30.852Z,98583.84
2022-11-22T16:12:29.539Z,98587.53
2022-11-22T16:15:28.640Z,98585.28
2022-11-22T16:18:22.682Z,98570.47
2022-11-22T16:21:25.112Z,98575.41
2022-11-22T16:24:23.798Z,98577.66
2022-11-22T16:27:19.316Z,98566.38
2022-11-22T16:30:04.638Z,98568.41
2022-11-22T16:32:52.587Z,98571.91
2022-11-22T16:35:34.899Z,98563.69
2022-11-22T16:38:28.039Z,98568.34
2022-11-22T16:41:17.428Z,98579.03
2022-11-22T16:44:07.463Z,98573.50
2022-11-22T16:46:54.791Z,98574.91
2022-11-22T16:49:33.990Z,98581.69
2022-11-22T16:52:22.102Z,98584.59
2022-11-22T16:55:09.329Z,98578.03
2022-11-22T16:57:50.615Z,98575.31
2022-11-22T17:00:46.311Z,98576.13
2022-11-22T17:03:36.462Z,98580.63
2022-11-22T17:06:32.437Z,98573.25
2022-11-22T17:09:30.025Z,98569.34
2022-11-22T17:12:14.534Z,98574.88
2022-11-22T17:15:06.168Z,98574.09
2022-11-22T17:17:53.677Z,98574.09
2022-11-22T17:20:34.695Z,98568.53
2022-11-22T17:23:26.134Z,98561.78
2022-11-22T17:26:09.053Z,98566.09
2022-11-22T17:28:58.745Z,98571.44
2022-11-22T17:31:38.947Z,98558.50
2022-11-22T17:34:12.092Z,98554.81
2022-11-22T17:37:03.391Z,98554.81
2022-11-22T17:39:47.103Z,98549.69
2022-11-22T17:42:24.245Z,98550.72
2022-11-22T17:45:09.046Z,98552.13
2022-11-22T17:48:04.958Z,98543.09
2022-11-22T17:50:51.655Z,98544.97
2022-11-22T17:53:46.779Z,98538.97
2022-11-22T17:56:29.037Z,98543.31
2022-11-22T17:59:01.567Z,98546.78
2022-11-22T18:01:43.333Z,98540.03
2022-11-22T18:04:27.043Z,98540.63
2022-11-22T18:07:07.170Z,98531.59
2022-11-22T18:09:48.801Z,98540.63
2022-11-22T18:12:26.093Z,98533.03
2022-11-22T18:15:14.310Z,98534.50
2022-11-22T18:17:49.068Z,98523.41
2022-11-22T18:20:32.680Z,98523.41
2022-11-22T18:23:15.232Z,98515.78
2022-11-22T18:26:17.068Z,98519.50
2022-11-22T18:32:10.323Z,98514.56
2022-11-22T18:34:44.503Z,98506.75
2022-11-22T18:37:20.292Z,98512.09
2022-11-22T18:40:01.235Z,98505.31
2022-11-22T18:42:39.793Z,98507.59
2022-11-22T18:45:21.134Z,98501.81
2022-11-22T18:48:06.779Z,98507.59
2022-11-22T18:50:45.804Z,98509.41
2022-11-22T18:53:37.432Z,98507.16
2022-11-22T18:56:14.473Z,98503.88
2022-11-22T18:58:48.886Z,98502.22
2022-11-22T19:01:29.872Z,98501.59
2022-11-22T19:04:07.361Z,98490.31
2022-11-22T19:06:51.153Z,98484.56
2022-11-22T19:09:28.628Z,98478.16
2022-11-22T19:12:14.929Z,98487.19
2022-11-22T19:14:59.984Z,98481.22
2022-11-22T19:17:43.769Z,98489.88
2022-11-22T19:20:54.224Z,98496.84
2022-11-22T19:23:41.376Z,98493.16
2022-11-22T19:26:20.700Z,98470.78
2022-11-22T19:29:02.838Z,98471.78
2022-11-22T19:31:42.819Z,98476.50
2022-11-22T19:34:21.081Z,98477.31
2022-11-22T19:37:08.097Z,98476.31
2022-11-22T19:39:45.411Z,98468.28
2022-11-22T19:42:36.304Z,98467.25
2022-11-22T19:45:13.969Z,98465.00
2022-11-22T19:47:56.710Z,98461.09
2022-11-22T19:50:48.826Z,98460.66
2022-11-22T19:53:34.738Z,98456.31
2022-11-22T19:56:22.279Z,98458.66
2022-11-22T19:59:08.799Z,98451.63
2022-11-22T20:01:49.516Z,98463.34
2022-11-22T20:04:48.970Z,98459.66
2022-11-22T20:07:35.541Z,98464.56
2022-11-22T20:10:13.357Z,98455.69
2022-11-22T20:13:10.350Z,98454.84
2022-11-22T20:15:55.068Z,98461.63
2022-11-22T20:18:33.228Z,98459.38
2022-11-22T20:21:09.400Z,98457.09
2022-11-22T20:23:58.818Z,98462.63
2022-11-22T20:26:45.046Z,98452.34
2022-11-22T20:29:23.202Z,98454.22
2022-11-22T20:32:01.268Z,98443.94
2022-11-22T20:34:39.268Z,98435.44
2022-11-22T20:37:17.135Z,98437.06
2022-11-22T20:40:00.586Z,98436.22
2022-11-22T20:42:55.429Z,98443.72
2022-11-22T20:45:49.283Z,98446.06
2022-11-22T20:48:33.196Z,98435.44
2022-11-22T20:51:13.222Z,98429.69
2022-11-22T20:53:53.920Z,98425.66
2022-11-22T20:56:45.582Z,98426.06
2022-11-22T20:59:31.533Z,98434.25
2022-11-22T21:02:16.296Z,98445.69
2022-11-22T21:05:07.067Z,98447.47
2022-11-22T21:07:50.779Z,98448.03
2022-11-22T21:10:31.366Z,98445.69
2022-11-22T21:13:15.564Z,98446.50
2022-11-22T21:16:21.176Z,98439.72
2022-11-22T21:19:17.925Z,98433.38
2022-11-22T21:21:58.675Z,98437.06
2022-11-22T21:24:51.001Z,98437.13
2022-11-22T21:27:36.170Z,98433.38
2022-11-22T21:30:11.993Z,98441.03
2022-11-22T21:32:54.884Z,98433.00
2022-11-22T21:35:31.070Z,98427.22
2022-11-22T21:38:14.649Z,98424.72
2022-11-22T21:41:38.264Z,98428.03
2022-11-22T21:44:20.520Z,98435.22
2022-11-22T21:47:02.192Z,98440.16
2022-11-22T21:49:47.545Z,98434.97
2022-11-22T21:52:28.762Z,98433.75
2022-11-22T21:55:00.820Z,98431.72
2022-11-22T21:57:36.454Z,98428.91
2022-11-22T22:00:18.158Z,98432.03
2022-11-22T22:02:51.788Z,98434.69
2022-11-22T22:05:35.867Z,98427.72
2022-11-22T22:08:19.361Z,98425.06
2022-11-22T22:10:59.024Z,98423.63
2022-11-22T22:13:51.065Z,98420.38
2022-11-22T22:16:36.932Z,98425.47
2022-11-22T22:19:25.929Z,98424.19
2022-11-22T22:22:01.022Z,98419.09
2022-11-22T22:24:43.767Z,98423.59
2022-11-22T22:27:28.797Z,98427.72
2022-11-22T22:30:08.186Z,98423.38
2022-11-22T22:32:57.630Z,98429.34
2022-11-22T22:35:37.531Z,98424.97
2022-11-22T22:38:15.196Z,98421.94
2022-11-22T22:40:57.870Z,98416.13
2022-11-22T22:43:46.197Z,98413.22
2022-11-22T22:46:27.535Z,98412.84
2022-11-22T22:49:05.171Z,98415.78
2022-11-22T22:51:43.269Z,98416.78
2022-11-22T22:54:32.236Z,98420.31
2022-11-22T22:57:15.879Z,98417.78
2022-11-22T23:00:02.396Z,98433.44
2022-11-22T23:02:49.785Z,98433.84
2022-11-22T23:05:47.099Z,98437.09
2022-11-22T23:08:30.986Z,98432.00
2022-11-22T23:11:13.015Z,98431.16
2022-11-22T23:14:02.384Z,98435.25
2022-11-22T23:16:41.799Z,98428.09
2022-11-22T23:19:26.145Z,98423.91
2022-11-22T23:22:13.271Z,98424.91
2022-11-22T23:24:59.427Z,98424.81
2022-11-22T23:27:42.675Z,98419.91
2022-11-22T23:30:18.095Z,98409.56
2022-11-22T23:33:08.809Z,98415.59
2022-11-22T23:36:01.251Z,98412.72
2022-11-22T23:38:35.964Z,98411.88
2022-11-22T23:41:31.030Z,98412.44
2022-11-22T23:44:11.390Z,98410.31
2022-11-22T23:47:03.084Z,98413.94
2022-11-22T23:49:49.285Z,98405.53
2022-11-22T23:52:32.816Z,98402.84
2022-11-22T23:55:18.266Z,98401.38
2022-11-22T23:58:07.796Z,98400.34
